createdAt,value
2022-12-07T00:01:46.948Z,97663.16
2022-12-07T00:04:18.953Z,97657.63
2022-12-07T00:06:52.639Z,97662.25
2022-12-07T00:09:20.914Z,97667.66
2022-12-07T00:11:52.722Z,97652.63
2022-12-07T00:14:21.437Z,97657.53
2022-12-07T00:16:52.220Z,97651.56
2022-12-07T00:19:20.757Z,97653.22
2022-12-07T00:21:48.648Z,97650.16
2022-12-07T00:24:16.493Z,97644.19
2022-12-07T00:26:46.362Z,97651.41
2022-12-07T00:29:22.913Z,97647.53
2022-12-07T00:31:50.826Z,97650.31
2022-12-07T00:34:21.601Z,97652.53
2022-12-07T00:36:50.712Z,97651.69
2022-12-07T00:39:18.638Z,97636.81
2022-12-07T00:41:46.524Z,97650.72
2022-12-07T00:44:14.585Z,97641.81
2022-12-07T00:46:42.428Z,97638.72
2022-12-07T00:49:10.260Z,97641.94
2022-12-07T00:51:38.171Z,97650.03
2022-12-07T00:54:05.954Z,97652.69
2022-12-07T00:56:33.763Z,97649.31
2022-12-07T00:59:04.440Z,97652.94
2022-12-07T01:01:36.272Z,97657.81
2022-12-07T01:04:04.980Z,97646.25
2022-12-07T01:06:33.303Z,97647.34
2022-12-07T01:09:01.781Z,97653.38
2022-12-07T01:11:31.679Z,97654.34
2022-12-07T01:14:01.535Z,97652.25
2022-12-07T01:16:32.451Z,97649.88
2022-12-07T01:19:01.638Z,97651.13
2022-12-07T01:21:37.057Z,97650.41
2022-12-07T01:24:08.233Z,97653.63
2022-12-07T01:26:36.142Z,97642.78
2022-12-07T01:29:04.271Z,97650.00
2022-12-07T01:31:32.345Z,97654.06
2022-12-07T01:34:01.702Z,97660.19
2022-12-07T01:36:33.714Z,97662.53
2022-12-07T01:39:06.753Z,97667.66
2022-12-07T01:41:41.255Z,97664.06
2022-12-07T01:44:28.185Z,97662.78
2022-12-07T01:47:01.863Z,97665.44
2022-12-07T01:49:49.575Z,97665.28
2022-12-07T01:52:38.837Z,97664.06
2022-12-07T01:55:13.125Z,97667.09
2022-12-07T01:57:50.135Z,97658.75
2022-12-07T02:00:19.577Z,97655.53
2022-12-07T02:06:17.089Z,97662.09
2022-12-07T02:08:45.302Z,97654.31
2022-12-07T02:11:13.174Z,97656.16
2022-12-07T02:13:44.090Z,97660.19
2022-12-07T02:16:44.009Z,97657.97
2022-12-07T02:19:23.724Z,97656.84
2022-12-07T02:22:28.999Z,97655.03
2022-12-07T02:25:28.682Z,97651.81
2022-12-07T02:28:32.079Z,97648.59
2022-12-07T02:31:09.498Z,97650.03
2022-12-07T02:33:55.564Z,97638.31
2022-12-07T02:36:31.362Z,97638.72
2022-12-07T02:39:12.029Z,97641.09
2022-12-07T02:41:52.370Z,97633.28
2022-12-07T02:44:25.193Z,97636.25
2022-12-07T02:47:00.901Z,97629.41
2022-12-07T02:49:30.301Z,97636.63
2022-12-07T02:51:58.088Z,97632.59
2022-12-07T02:54:25.945Z,97628.13
2022-12-07T02:57:54.363Z,97626.75
2022-12-07T03:00:22.479Z,97622.72
2022-12-07T03:02:59.924Z,97619.94
2022-12-07T03:06:11.581Z,97618.09
2022-12-07T03:09:07.226Z,97616.31
2022-12-07T03:11:56.553Z,97613.38
2022-12-07T03:14:35.891Z,97619.94
2022-12-07T03:17:27.561Z,97616.44
2022-12-07T03:20:03.237Z,97618.66
2022-12-07T03:22:33.689Z,97612.41
2022-12-07T03:25:08.983Z,97618.97
2022-12-07T03:28:02.426Z,97606.25
2022-12-07T03:30:38.828Z,97608.50
2022-12-07T03:33:30.445Z,97608.09
2022-12-07T03:36:16.798Z,97603.34
2022-12-07T03:39:03.614Z,97609.47
2022-12-07T03:41:37.680Z,97599.56
2022-12-07T03:44:08.286Z,97603.47
2022-12-07T03:47:12.684Z,97606.44
2022-12-07T03:50:13.100Z,97603.22
2022-12-07T03:52:48.475Z,97603.09
2022-12-07T03:55:26.344Z,97595.84
2022-12-07T03:58:00.707Z,97586.09
2022-12-07T04:00:29.310Z,97583.16
2022-12-07T04:02:57.450Z,97581.75
2022-12-07T04:05:25.614Z,97582.88
2022-12-07T04:07:53.436Z,97573.69
2022-12-07T04:10:21.344Z,97565.47
2022-12-07T04:12:49.102Z,97570.75
2022-12-07T04:15:16.947Z,97567.81
2022-12-07T04:17:44.708Z,97567.00
2022-12-07T04:20:13.377Z,97564.47
2022-12-07T04:22:41.363Z,97553.34
2022-12-07T04:25:09.660Z,97556.69
2022-12-07T04:27:37.422Z,97553.34
2022-12-07T04:30:06.179Z,97557.81
2022-12-07T04:32:33.918Z,97555.97
2022-12-07T04:35:01.622Z,97554.47
2022-12-07T04:37:29.396Z,97564.91
2022-12-07T04:39:57.156Z,97572.44
2022-12-07T04:42:24.890Z,97576.59
2022-12-07T04:44:52.625Z,97577.00
2022-12-07T04:47:20.547Z,97576.50
2022-12-07T04:49:48.266Z,97577.38
2022-12-07T04:52:16.064Z,97569.03
2022-12-07T04:54:43.812Z,97574.06
2022-12-07T04:57:11.609Z,97581.78
2022-12-07T04:59:43.920Z,97586.69
2022-12-07T05:02:13.481Z,97585.28
2022-12-07T05:04:41.245Z,97586.50
2022-12-07T05:07:09.107Z,97599.97
2022-12-07T05:09:36.880Z,97596.53
2022-12-07T05:12:04.758Z,97599.69
2022-12-07T05:14:32.480Z,97602.41
2022-12-07T05:17:00.302Z,97605.06
2022-12-07T05:19:28.263Z,97598.91
2022-12-07T05:21:56.030Z,97596.84
2022-12-07T05:24:23.961Z,97596.03
2022-12-07T05:26:51.713Z,97594.19
2022-12-07T05:29:19.488Z,97586.25
2022-12-07T05:31:47.297Z,97589.53
2022-12-07T05:34:14.981Z,97587.22
2022-12-07T05:36:42.725Z,97587.91
2022-12-07T05:39:11.126Z,97594.94
2022-12-07T05:41:57.664Z,97590.25
2022-12-07T05:44:25.477Z,97587.50
2022-12-07T05:46:53.224Z,97587.78
2022-12-07T05:49:20.974Z,97592.63
2022-12-07T05:51:48.799Z,97591.13
2022-12-07T05:54:16.510Z,97587.53
2022-12-07T05:56:44.261Z,97584.00
2022-12-07T05:59:24.190Z,97587.91
2022-12-07T06:01:59.009Z,97590.91
2022-12-07T06:04:30.595Z,97598.53
2022-12-07T06:06:58.932Z,97600.13
2022-12-07T06:09:29.024Z,97590.78
2022-12-07T06:12:16.757Z,97591.41
2022-12-07T06:14:45.254Z,97593.03
2022-12-07T06:17:13.799Z,97586.00
2022-12-07T06:19:41.964Z,97587.28
2022-12-07T06:22:11.598Z,97584.91
2022-12-07T06:24:40.175Z,97597.31
2022-12-07T06:27:08.367Z,97586.19
2022-12-07T06:29:36.111Z,97586.63
2022-12-07T06:32:04.905Z,97589.09
2022-12-07T06:34:32.751Z,97585.50
2022-12-07T06:37:00.563Z,97580.06
2022-12-07T06:39:30.089Z,97582.56
2022-12-07T06:41:58.736Z,97583.69
2022-12-07T06:44:26.876Z,97583.13
2022-12-07T06:47:12.444Z,97591.59
2022-12-07T06:49:42.953Z,97581.59
2022-12-07T06:52:10.723Z,97583.13
2022-12-07T06:54:38.429Z,97592.44
2022-12-07T06:57:06.256Z,97584.50
2022-12-07T06:59:33.976Z,97583.81
2022-12-07T07:02:01.801Z,97575.75
2022-12-07T07:04:29.562Z,97580.34
2022-12-07T07:07:00.227Z,97578.69
2022-12-07T07:09:28.521Z,97592.88
2022-12-07T07:11:56.318Z,97592.31
2022-12-07T07:14:24.111Z,97589.00
2022-12-07T07:16:52.123Z,97594.59
2022-12-07T07:19:19.928Z,97600.13
2022-12-07T07:21:48.837Z,97595.28
2022-12-07T07:24:16.598Z,97590.53
2022-12-07T07:26:44.349Z,97592.63
2022-12-07T07:29:12.117Z,97596.53
2022-12-07T07:31:39.862Z,97603.91
2022-12-07T07:34:07.557Z,97599.88
2022-12-07T07:36:35.329Z,97598.88
2022-12-07T07:39:03.433Z,97605.88
2022-12-07T07:41:31.336Z,97597.63
2022-12-07T07:43:59.058Z,97604.47
2022-12-07T07:46:27.091Z,97612.81
2022-12-07T07:48:54.880Z,97609.91
2022-12-07T07:51:23.249Z,97606.13
2022-12-07T07:53:51.046Z,97610.88
2022-12-07T07:56:18.839Z,97609.34
2022-12-07T07:58:46.600Z,97611.72
2022-12-07T08:01:14.713Z,97619.78
2022-12-07T08:03:42.468Z,97616.44
2022-12-07T08:06:10.177Z,97617.13
2022-12-07T08:08:37.914Z,97622.44
2022-12-07T08:11:10.131Z,97609.91
2022-12-07T08:13:38.494Z,97616.44
2022-12-07T08:16:10.002Z,97617.53
2022-12-07T08:18:41.845Z,97610.47
2022-12-07T08:21:14.436Z,97615.47
2022-12-07T08:23:42.953Z,97619.09
2022-12-07T08:26:14.808Z,97613.50
2022-12-07T08:28:43.541Z,97622.31
2022-12-07T08:31:18.005Z,97628.69
2022-12-07T08:33:49.839Z,97631.34
2022-12-07T08:36:18.163Z,97631.50
2022-12-07T08:39:07.754Z,97631.63
2022-12-07T08:41:34.382Z,97630.94
2022-12-07T08:44:02.352Z,97626.34
2022-12-07T08:46:58.902Z,97639.97
2022-12-07T08:49:34.782Z,97629.69
2022-12-07T08:52:05.290Z,97638.59
2022-12-07T08:54:37.660Z,97639.72
2022-12-07T08:57:07.161Z,97626.59
2022-12-07T08:59:36.972Z,97638.16
2022-12-07T09:02:07.178Z,97627.44
2022-12-07T09:04:35.178Z,97638.31
2022-12-07T09:07:03.175Z,97632.28
2022-12-07T09:09:31.013Z,97634.81
2022-12-07T09:11:58.871Z,97635.38
2022-12-07T09:14:26.591Z,97636.78
2022-12-07T09:16:54.341Z,97632.03
2022-12-07T09:19:22.224Z,97633.97
2022-12-07T09:21:49.994Z,97631.16
2022-12-07T09:24:17.766Z,97626.34
2022-12-07T09:26:45.548Z,97632.34
2022-12-07T09:29:13.300Z,97631.91
2022-12-07T09:31:41.714Z,97635.38
2022-12-07T09:34:09.635Z,97634.00
2022-12-07T09:36:37.458Z,97638.59
2022-12-07T09:39:05.998Z,97632.59
2022-12-07T09:41:34.117Z,97644.44
2022-12-07T09:44:28.087Z,97633.44
2022-12-07T09:46:57.726Z,97638.47
2022-12-07T09:49:29.897Z,97636.50
2022-12-07T09:52:09.926Z,97633.41
2022-12-07T09:54:44.869Z,97630.25
2022-12-07T09:57:16.101Z,97627.19
2022-12-07T09:59:43.980Z,97620.63
2022-12-07T10:02:43.012Z,97617.13
2022-12-07T10:05:24.449Z,97620.59
2022-12-07T10:07:53.024Z,97616.03
2022-12-07T10:10:32.759Z,97613.72
2022-12-07T10:13:08.278Z,97609.19
2022-12-07T10:15:46.434Z,97611.16
2022-12-07T10:18:32.314Z,97613.16
2022-12-07T10:21:14.235Z,97609.09
2022-12-07T10:24:01.215Z,97602.31
2022-12-07T10:26:30.899Z,97608.84
2022-12-07T10:29:34.314Z,97604.00
2022-12-07T10:32:07.882Z,97604.25
2022-12-07T10:34:42.184Z,97601.66
2022-12-07T10:37:10.427Z,97601.31
2022-12-07T10:39:52.060Z,97595.75
2022-12-07T10:42:29.049Z,97598.69
2022-12-07T10:45:18.855Z,97600.22
2022-12-07T10:48:35.407Z,97602.28
2022-12-07T10:51:21.524Z,97603.22
2022-12-07T10:54:04.128Z,97600.00
2022-12-07T10:56:59.446Z,97591.44
2022-12-07T11:00:09.775Z,97586.72
2022-12-07T11:02:54.939Z,97589.66
2022-12-07T11:06:12.169Z,97581.06
2022-12-07T11:09:29.257Z,97583.13
2022-12-07T11:12:48.479Z,97570.97
2022-12-07T11:15:48.517Z,97580.03
2022-12-07T11:18:32.870Z,97577.25
2022-12-07T11:21:00.427Z,97574.16
2022-12-07T11:24:00.694Z,97569.16
2022-12-07T11:27:08.361Z,97566.50
2022-12-07T11:30:17.002Z,97563.03
2022-12-07T11:33:11.436Z,97558.41
2022-12-07T11:35:57.215Z,97552.06
2022-12-07T11:38:43.600Z,97554.44
2022-12-07T11:41:14.573Z,97548.28
2022-12-07T11:44:05.454Z,97547.97
2022-12-07T11:46:38.998Z,97546.63
2022-12-07T11:49:54.885Z,97538.78
2022-12-07T11:53:00.071Z,97538.59
2022-12-07T11:55:51.423Z,97542.03
2022-12-07T11:58:56.848Z,97542.75
2022-12-07T12:01:53.797Z,97540.41
2022-12-07T12:04:59.415Z,97535.25
2022-12-07T12:10:39.753Z,97531.44
2022-12-07T12:16:49.741Z,97527.31
2022-12-07T12:20:00.356Z,97525.50
2022-12-07T12:22:45.375Z,97524.78
2022-12-07T12:25:30.889Z,97521.59
2022-12-07T12:28:02.137Z,97518.56
2022-12-07T12:30:40.403Z,97518.09
2022-12-07T12:33:34.552Z,97519.75
2022-12-07T12:36:17.461Z,97518.94
2022-12-07T12:39:00.275Z,97517.69
2022-12-07T12:41:37.084Z,97521.56
2022-12-07T12:44:30.374Z,97515.97
2022-12-07T12:47:00.165Z,97514.59
2022-12-07T12:49:27.775Z,97520.81
2022-12-07T12:52:14.330Z,97516.97
2022-12-07T12:55:03.698Z,97517.19
2022-12-07T12:57:36.633Z,97515.38
2022-12-07T13:00:22.877Z,97509.50
2022-12-07T13:03:00.510Z,97500.28
2022-12-07T13:05:31.521Z,97497.84
2022-12-07T13:08:33.608Z,97495.81
2022-12-07T13:11:40.830Z,97496.59
2022-12-07T13:14:56.968Z,97488.50
2022-12-07T13:17:34.042Z,97483.16
2022-12-07T13:20:03.879Z,97488.06
2022-12-07T13:22:31.530Z,97484.53
2022-12-07T13:25:37.362Z,97479.88
2022-12-07T13:28:19.820Z,97473.66
2022-12-07T13:31:10.748Z,97474.56
2022-12-07T13:33:38.544Z,97468.38
2022-12-07T13:36:18.780Z,97472.28
2022-12-07T13:39:11.120Z,97478.75
2022-12-07T13:41:43.835Z,97478.13
2022-12-07T13:44:18.166Z,97470.13
2022-12-07T13:47:07.566Z,97468.78
2022-12-07T13:49:51.808Z,97467.34
2022-12-07T13:52:32.320Z,97471.06
2022-12-07T13:55:02.739Z,97479.00
2022-12-07T13:57:37.150Z,97471.31
2022-12-07T14:00:18.903Z,97473.00
2022-12-07T14:03:26.479Z,97482.19
2022-12-07T14:06:18.447Z,97475.50
2022-12-07T14:08:46.832Z,97474.75
2022-12-07T14:11:21.674Z,97473.09
2022-12-07T14:14:01.492Z,97477.69
2022-12-07T14:16:36.404Z,97480.00
2022-12-07T14:19:48.987Z,97476.38
2022-12-07T14:22:25.692Z,97469.84
2022-12-07T14:25:14.787Z,97477.88
2022-12-07T14:27:56.873Z,97470.88
2022-12-07T14:30:30.820Z,97470.75
2022-12-07T14:33:01.231Z,97469.59
2022-12-07T14:35:30.297Z,97470.56
2022-12-07T14:37:58.697Z,97470.22
2022-12-07T14:40:29.652Z,97470.88
2022-12-07T14:43:12.902Z,97469.63
2022-12-07T14:45:41.403Z,97469.19
2022-12-07T14:53:56.964Z,97479.69
2022-12-07T14:56:26.912Z,97485.38
2022-12-07T14:58:54.793Z,97480.97
2022-12-07T15:01:22.604Z,97474.41
2022-12-07T15:03:50.464Z,97483.59
2022-12-07T15:06:20.060Z,97481.38
2022-12-07T15:08:48.146Z,97482.03
2022-12-07T15:11:18.234Z,97480.41
2022-12-07T15:14:04.903Z,97488.44
2022-12-07T15:16:59.666Z,97481.22
2022-12-07T15:19:28.537Z,97486.47
2022-12-07T15:21:59.386Z,97469.47
2022-12-07T15:24:28.086Z,97471.97
2022-12-07T15:26:56.067Z,97482.81
2022-12-07T15:29:24.159Z,97474.16
2022-12-07T15:31:57.847Z,97470.88
2022-12-07T15:34:26.758Z,97478.69
2022-12-07T15:36:54.393Z,97475.88
2022-12-07T15:39:23.355Z,97476.53
2022-12-07T15:41:51.431Z,97472.13
2022-12-07T15:44:38.055Z,97473.41
2022-12-07T15:47:06.866Z,97461.31
2022-12-07T15:49:34.727Z,97468.16
2022-12-07T15:52:02.463Z,97463.41
2022-12-07T15:54:31.267Z,97471.03
2022-12-07T15:56:59.079Z,97467.31
2022-12-07T15:59:28.378Z,97462.03
2022-12-07T16:01:57.145Z,97455.63
2022-12-07T16:04:24.998Z,97454.66
2022-12-07T16:06:52.761Z,97449.47
2022-12-07T16:09:20.634Z,97447.25
2022-12-07T16:11:48.546Z,97459.06
2022-12-07T16:14:16.345Z,97455.41
2022-12-07T16:16:44.157Z,97452.75
2022-12-07T16:19:12.118Z,97448.88
2022-12-07T16:21:40.181Z,97450.50
2022-12-07T16:24:09.127Z,97444.69
2022-12-07T16:26:37.652Z,97449.81
2022-12-07T16:29:05.720Z,97445.06
2022-12-07T16:31:33.627Z,97442.97
2022-12-07T16:34:01.507Z,97438.22
2022-12-07T16:37:01.872Z,97434.75
2022-12-07T16:39:17.053Z,97430.09
2022-12-07T16:41:45.030Z,97429.63
2022-12-07T16:44:14.529Z,97419.72
2022-12-07T16:46:43.153Z,97406.06
2022-12-07T16:49:16.720Z,97408.03
2022-12-07T16:51:44.535Z,97410.25
2022-12-07T16:54:13.871Z,97410.25
2022-12-07T16:56:42.401Z,97417.53
2022-12-07T16:59:10.307Z,97408.47
2022-12-07T17:01:38.726Z,97406.69
2022-12-07T17:04:06.592Z,97399.00
2022-12-07T17:06:34.413Z,97402.75
2022-12-07T17:09:02.457Z,97404.38
2022-12-07T17:11:33.999Z,97403.28
2022-12-07T17:14:20.579Z,97397.44
2022-12-07T17:16:48.495Z,97401.38
2022-12-07T17:19:17.608Z,97398.03
2022-12-07T17:21:45.644Z,97401.50
2022-12-07T17:24:17.318Z,97402.06
2022-12-07T17:26:47.030Z,97397.44
2022-12-07T17:29:17.782Z,97400.50
2022-12-07T17:31:51.278Z,97396.94
2022-12-07T17:34:20.176Z,97396.78
2022-12-07T17:36:48.188Z,97391.34
2022-12-07T17:39:19.163Z,97397.16
2022-12-07T17:42:06.142Z,97389.91
2022-12-07T17:44:33.974Z,97395.53
2022-12-07T17:47:03.987Z,97394.69
2022-12-07T17:49:31.967Z,97397.03
2022-12-07T17:52:18.462Z,97385.63
2022-12-07T17:54:46.223Z,97381.16
2022-12-07T17:57:14.002Z,97381.19
2022-12-07T17:59:41.882Z,97385.38
2022-12-07T18:02:11.206Z,97382.41
2022-12-07T18:04:40.199Z,97380.09
2022-12-07T18:07:09.244Z,97378.13
2022-12-07T18:09:37.265Z,97384.09
2022-12-07T18:12:06.061Z,97383.41
2022-12-07T18:14:34.041Z,97380.31
2022-12-07T18:17:02.015Z,97380.75
2022-12-07T18:19:29.991Z,97374.63
2022-12-07T18:21:57.781Z,97377.53
2022-12-07T18:24:25.580Z,97377.53
2022-12-07T18:26:53.402Z,97378.38
2022-12-07T18:29:21.496Z,97385.03
2022-12-07T18:31:49.304Z,97382.75
2022-12-07T18:34:18.910Z,97380.78
2022-12-07T18:36:50.247Z,97376.84
2022-12-07T18:39:19.169Z,97378.63
2022-12-07T18:41:47.482Z,97379.84
2022-12-07T18:44:16.971Z,97380.84
2022-12-07T18:46:44.926Z,97370.53
2022-12-07T18:49:13.735Z,97377.28
2022-12-07T18:51:42.653Z,97378.09
2022-12-07T18:54:10.674Z,97371.31
2022-12-07T18:56:38.758Z,97374.66
2022-12-07T18:59:25.292Z,97372.25
2022-12-07T19:01:55.156Z,97367.13
2022-12-07T19:04:23.378Z,97363.09
2022-12-07T19:06:51.665Z,97358.25
2022-12-07T19:09:20.028Z,97353.63
2022-12-07T19:11:51.758Z,97358.94
2022-12-07T19:14:31.533Z,97349.75
2022-12-07T19:17:06.260Z,97348.09
2022-12-07T19:19:38.848Z,97352.25
2022-12-07T19:22:08.154Z,97349.59
2022-12-07T19:24:37.191Z,97349.16
2022-12-07T19:27:07.181Z,97347.53
2022-12-07T19:29:35.605Z,97352.13
2022-12-07T19:32:05.776Z,97342.09
2022-12-07T19:34:33.559Z,97343.88
2022-12-07T19:37:01.349Z,97343.97
2022-12-07T19:39:29.983Z,97341.31
2022-12-07T19:41:58.687Z,97343.56
2022-12-07T19:44:28.084Z,97337.28
2022-12-07T19:47:04.512Z,97340.09
2022-12-07T19:49:35.799Z,97331.66
2022-12-07T19:52:07.252Z,97340.38
2022-12-07T19:54:36.259Z,97342.19
2022-12-07T19:57:05.741Z,97339.00
2022-12-07T19:59:34.371Z,97334.56
2022-12-07T20:02:02.417Z,97334.88
2022-12-07T20:04:32.775Z,97326.78
2022-12-07T20:07:01.563Z,97329.25
2022-12-07T20:09:29.384Z,97323.22
2022-12-07T20:12:15.820Z,97320.72
2022-12-07T20:14:43.685Z,97318.16
2022-12-07T20:17:11.576Z,97319.13
2022-12-07T20:19:39.966Z,97320.66
2022-12-07T20:22:07.954Z,97314.78
2022-12-07T20:24:36.350Z,97317.97
2022-12-07T20:27:05.660Z,97319.50
2022-12-07T20:29:34.054Z,97324.50
2022-12-07T20:32:02.285Z,97319.91
2022-12-07T20:34:30.329Z,97311.50
2022-12-07T20:36:58.271Z,97314.00
2022-12-07T20:39:26.109Z,97309.00
2022-12-07T20:42:12.471Z,97303.56
2022-12-07T20:44:40.383Z,97302.88
2022-12-07T20:47:08.396Z,97305.81
2022-12-07T20:49:36.217Z,97292.34
2022-12-07T20:52:04.566Z,97298.78
2022-12-07T20:54:32.313Z,97300.91
2022-12-07T20:57:00.044Z,97292.56
2022-12-07T20:59:27.866Z,97299.09
2022-12-07T21:01:55.713Z,97294.63
2022-12-07T21:04:23.555Z,97293.41
2022-12-07T21:06:51.441Z,97287.41
2022-12-07T21:09:20.350Z,97279.94
2022-12-07T21:11:48.065Z,97287.88
2022-12-07T21:14:15.788Z,97277.28
2022-12-07T21:16:43.549Z,97278.25
2022-12-07T21:19:11.305Z,97281.88
2022-12-07T21:21:39.126Z,97277.00
2022-12-07T21:24:08.561Z,97269.25
2022-12-07T21:26:37.096Z,97268.69
2022-12-07T21:29:07.172Z,97273.56
2022-12-07T21:31:35.782Z,97275.66
2022-12-07T21:34:05.154Z,97278.63
2022-12-07T21:36:33.661Z,97273.75
2022-12-07T21:39:01.910Z,97277.78
2022-12-07T21:41:34.682Z,97275.88
2022-12-07T21:44:06.556Z,97273.66
2022-12-07T21:46:35.027Z,97271.44
2022-12-07T21:49:10.670Z,97265.75
2022-12-07T21:51:40.669Z,97267.97
2022-12-07T21:54:10.514Z,97266.69
2022-12-07T21:56:41.865Z,97262.84
2022-12-07T21:59:17.729Z,97264.75
2022-12-07T22:01:47.400Z,97266.88
2022-12-07T22:04:20.880Z,97270.59
2022-12-07T22:06:50.071Z,97263.25
2022-12-07T22:09:19.087Z,97274.63
2022-12-07T22:11:47.292Z,97278.53
2022-12-07T22:14:34.121Z,97269.78
2022-12-07T22:17:02.120Z,97278.97
2022-12-07T22:19:29.870Z,97280.09
2022-12-07T22:21:58.152Z,97272.16
2022-12-07T22:24:25.925Z,97268.97
2022-12-07T22:26:53.692Z,97273.56
2022-12-07T22:29:21.383Z,97267.56
2022-12-07T22:31:53.448Z,97264.50
2022-12-07T22:34:21.700Z,97266.47
2022-12-07T22:36:49.446Z,97266.03
2022-12-07T22:39:17.312Z,97262.00
2022-12-07T22:41:45.251Z,97261.31
2022-12-07T22:44:13.013Z,97258.94
2022-12-07T22:46:41.362Z,97258.22
2022-12-07T22:49:09.258Z,97260.03
2022-12-07T22:51:40.962Z,97252.41
2022-12-07T22:54:15.781Z,97246.56
2022-12-07T22:56:44.306Z,97252.25
2022-12-07T22:59:14.121Z,97251.69
2022-12-07T23:01:42.249Z,97246.41
2022-12-07T23:04:10.135Z,97242.94
2022-12-07T23:06:38.012Z,97242.94
2022-12-07T23:09:10.226Z,97243.94
2022-12-07T23:12:00.713Z,97246.56
2022-12-07T23:14:35.889Z,97250.16
2022-12-07T23:17:05.064Z,97246.94
2022-12-07T23:19:32.993Z,97241.53
2022-12-07T23:22:00.745Z,97246.00
2022-12-07T23:24:28.575Z,97244.06
2022-12-07T23:26:56.394Z,97236.00
2022-12-07T23:29:24.209Z,97235.03
2022-12-07T23:31:52.265Z,97240.31
2022-12-07T23:34:20.203Z,97232.69
2022-12-07T23:36:47.962Z,97226.41
2022-12-07T23:39:15.737Z,97218.63
2022-12-07T23:41:43.495Z,97212.66
2022-12-07T23:44:13.378Z,97212.81
2022-12-07T23:46:41.239Z,97208.63
2022-12-07T23:49:10.163Z,97205.59
2022-12-07T23:51:38.020Z,97206.66
2022-12-07T23:54:05.941Z,97204.03
2022-12-07T23:56:34.722Z,97204.03
2022-12-07T23:59:03.977Z,97197.09
